METAR Data
IDs: Format: Raw Decoded Include TAF

Data at: 1521 UTC 25 Jan 2020

METAR for:KFME (Fort Meade/Tipton Fl, MD, US)
Text:KFME 251506Z AUTO 00000KT 10SM OVC009 07/07 A2988 RMK AO1
Temperature: 7.0°C ( 45°F)
Dewpoint: 7.0°C ( 45°F) [RH = 100%]
Pressure (altimeter):29.88 inches Hg (1011.9 mb)
Winds:calm
Visibility:10 or more sm (16+ km)
Ceiling:900 feet AGL
Clouds: overcast cloud deck at 900 feet AGL
QC Flag:automated observation with no human augmentation